sensor_id;sensor_type;location;lat;lon;timestamp;temperature;humidity
19050;DHT22;9657;45.940;12.840;2023-08-01T00:01:30;27.80;60.10
19050;DHT22;9657;45.940;12.840;2023-08-01T00:03:57;27.80;60.10
19050;DHT22;9657;45.940;12.840;2023-08-01T00:06:24;27.80;60.10
19050;DHT22;9657;45.940;12.840;2023-08-01T00:08:51;27.80;60.10
19050;DHT22;9657;45.940;12.840;2023-08-01T00:11:20;27.80;60.20
19050;DHT22;9657;45.940;12.840;2023-08-01T00:13:47;27.80;60.20
19050;DHT22;9657;45.940;12.840;2023-08-01T00:16:14;27.80;60.20
19050;DHT22;9657;45.940;12.840;2023-08-01T00:18:41;27.80;60.20
19050;DHT22;9657;45.940;12.840;2023-08-01T00:21:08;27.80;60.20
19050;DHT22;9657;45.940;12.840;2023-08-01T00:23:37;27.80;60.30
19050;DHT22;9657;45.940;12.840;2023-08-01T00:26:04;27.80;60.30
19050;DHT22;9657;45.940;12.840;2023-08-01T00:28:32;27.80;60.30
19050;DHT22;9657;45.940;12.840;2023-08-01T00:31:03;27.80;60.40
19050;DHT22;9657;45.940;12.840;2023-08-01T00:33:31;27.80;60.50
19050;DHT22;9657;45.940;12.840;2023-08-01T00:35:58;27.80;60.40
19050;DHT22;9657;45.940;12.840;2023-08-01T00:38:25;27.80;60.50
19050;DHT22;9657;45.940;12.840;2023-08-01T00:40:52;27.80;60.50
19050;DHT22;9657;45.940;12.840;2023-08-01T00:43:19;27.80;60.50
19050;DHT22;9657;45.940;12.840;2023-08-01T00:45:48;27.80;60.50
19050;DHT22;9657;45.940;12.840;2023-08-01T00:48:15;27.80;60.50
19050;DHT22;9657;45.940;12.840;2023-08-01T00:50:44;27.80;60.50
19050;DHT22;9657;45.940;12.840;2023-08-01T00:53:12;27.80;60.50
19050;DHT22;9657;45.940;12.840;2023-08-01T00:55:39;27.80;60.50
19050;DHT22;9657;45.940;12.840;2023-08-01T00:58:06;27.80;60.50
19050;DHT22;9657;45.940;12.840;2023-08-01T01:03:14;27.80;61.30
19050;DHT22;9657;45.940;12.840;2023-08-01T01:05:45;27.80;60.60
19050;DHT22;9657;45.940;12.840;2023-08-01T01:08:14;27.80;60.60
19050;DHT22;9657;45.940;12.840;2023-08-01T01:10:41;27.80;60.60
19050;DHT22;9657;45.940;12.840;2023-08-01T01:13:08;27.80;60.60
19050;DHT22;9657;45.940;12.840;2023-08-01T01:15:35;27.80;60.60
19050;DHT22;9657;45.940;12.840;2023-08-01T01:18:02;27.80;60.60
19050;DHT22;9657;45.940;12.840;2023-08-01T01:20:33;27.70;60.50
19050;DHT22;9657;45.940;12.840;2023-08-01T01:23:01;27.80;60.60
19050;DHT22;9657;45.940;12.840;2023-08-01T01:25:30;27.80;60.50
19050;DHT22;9657;45.940;12.840;2023-08-01T01:27:59;27.80;60.50
19050;DHT22;9657;45.940;12.840;2023-08-01T01:30:28;27.70;60.50
19050;DHT22;9657;45.940;12.840;2023-08-01T01:32:56;27.80;60.60
19050;DHT22;9657;45.940;12.840;2023-08-01T01:35:24;27.80;60.60
19050;DHT22;9657;45.940;12.840;2023-08-01T01:37:52;27.70;60.50
19050;DHT22;9657;45.940;12.840;2023-08-01T01:40:19;27.80;60.60
19050;DHT22;9657;45.940;12.840;2023-08-01T01:42:46;27.80;60.50
19050;DHT22;9657;45.940;12.840;2023-08-01T01:45:14;27.70;60.50
19050;DHT22;9657;45.940;12.840;2023-08-01T01:47:41;27.80;60.60
19050;DHT22;9657;45.940;12.840;2023-08-01T01:50:09;27.80;60.60
19050;DHT22;9657;45.940;12.840;2023-08-01T01:52:36;27.80;60.60
19050;DHT22;9657;45.940;12.840;2023-08-01T01:55:05;27.80;60.60
19050;DHT22;9657;45.940;12.840;2023-08-01T01:57:32;27.70;60.50
19050;DHT22;9657;45.940;12.840;2023-08-01T02:00:01;27.70;60.50
19050;DHT22;9657;45.940;12.840;2023-08-01T02:02:28;27.70;60.50
19050;DHT22;9657;45.940;12.840;2023-08-01T02:04:55;27.70;60.50
19050;DHT22;9657;45.940;12.840;2023-08-01T02:07:22;27.70;60.50
19050;DHT22;9657;45.940;12.840;2023-08-01T02:09:49;27.70;60.50
19050;DHT22;9657;45.940;12.840;2023-08-01T02:12:18;27.70;60.50
19050;DHT22;9657;45.940;12.840;2023-08-01T02:14:45;27.70;60.50
19050;DHT22;9657;45.940;12.840;2023-08-01T02:17:12;27.70;60.50
19050;DHT22;9657;45.940;12.840;2023-08-01T02:19:39;27.70;60.50
19050;DHT22;9657;45.940;12.840;2023-08-01T02:22:06;27.70;60.60
19050;DHT22;9657;45.940;12.840;2023-08-01T02:24:33;27.70;60.50
19050;DHT22;9657;45.940;12.840;2023-08-01T02:27:00;27.70;60.50
19050;DHT22;9657;45.940;12.840;2023-08-01T02:29:29;27.70;60.50
19050;DHT22;9657;45.940;12.840;2023-08-01T02:31:56;27.70;60.50
19050;DHT22;9657;45.940;12.840;2023-08-01T02:34:23;27.70;61.30
19050;DHT22;9657;45.940;12.840;2023-08-01T02:36:50;27.70;60.50
19050;DHT22;9657;45.940;12.840;2023-08-01T02:39:17;27.70;60.60
19050;DHT22;9657;45.940;12.840;2023-08-01T02:41:44;27.70;60.50
19050;DHT22;9657;45.940;12.840;2023-08-01T02:44:11;27.70;60.50
19050;DHT22;9657;45.940;12.840;2023-08-01T02:46:40;27.70;60.50
19050;DHT22;9657;45.940;12.840;2023-08-01T02:49:07;27.70;60.50
19050;DHT22;9657;45.940;12.840;2023-08-01T02:51:34;27.70;60.50
19050;DHT22;9657;45.940;12.840;2023-08-01T02:54:01;27.70;60.50
19050;DHT22;9657;45.940;12.840;2023-08-01T02:56:28;27.70;60.50
19050;DHT22;9657;45.940;12.840;2023-08-01T02:58:55;27.70;60.50
19050;DHT22;9657;45.940;12.840;2023-08-01T03:01:22;27.70;60.50
19050;DHT22;9657;45.940;12.840;2023-08-01T03:03:51;27.70;60.50
19050;DHT22;9657;45.940;12.840;2023-08-01T03:06:18;27.70;60.50
19050;DHT22;9657;45.940;12.840;2023-08-01T03:08:45;27.70;60.50
19050;DHT22;9657;45.940;12.840;2023-08-01T03:11:13;27.70;60.50
19050;DHT22;9657;45.940;12.840;2023-08-01T03:13:40;27.70;60.50
19050;DHT22;9657;45.940;12.840;2023-08-01T03:16:07;27.70;60.60
19050;DHT22;9657;45.940;12.840;2023-08-01T03:18:35;27.70;60.50
19050;DHT22;9657;45.940;12.840;2023-08-01T03:21:04;27.70;60.50
19050;DHT22;9657;45.940;12.840;2023-08-01T03:23:31;27.70;60.50
19050;DHT22;9657;45.940;12.840;2023-08-01T03:25:58;27.70;60.60
19050;DHT22;9657;45.940;12.840;2023-08-01T03:28:26;27.60;60.50
19050;DHT22;9657;45.940;12.840;2023-08-01T03:30:53;27.70;60.60
19050;DHT22;9657;45.940;12.840;2023-08-01T03:33:20;27.60;60.50
19050;DHT22;9657;45.940;12.840;2023-08-01T03:35:48;27.70;60.60
19050;DHT22;9657;45.940;12.840;2023-08-01T03:38:16;27.70;60.60
19050;DHT22;9657;45.940;12.840;2023-08-01T03:40:43;27.70;60.60
19050;DHT22;9657;45.940;12.840;2023-08-01T03:43:10;27.60;60.50
19050;DHT22;9657;45.940;12.840;2023-08-01T03:45:37;27.70;60.60
19050;DHT22;9657;45.940;12.840;2023-08-01T03:48:04;27.70;60.60
19050;DHT22;9657;45.940;12.840;2023-08-01T03:50:31;27.70;60.60
19050;DHT22;9657;45.940;12.840;2023-08-01T03:52:58;27.60;60.50
19050;DHT22;9657;45.940;12.840;2023-08-01T03:55:27;27.60;60.50
19050;DHT22;9657;45.940;12.840;2023-08-01T03:57:54;27.60;60.50
19050;DHT22;9657;45.940;12.840;2023-08-01T04:00:21;27.60;60.40
19050;DHT22;9657;45.940;12.840;2023-08-01T04:02:48;27.60;60.50
19050;DHT22;9657;45.940;12.840;2023-08-01T04:05:15;27.60;60.40
19050;DHT22;9657;45.940;12.840;2023-08-01T04:07:42;27.60;60.40
19050;DHT22;9657;45.940;12.840;2023-08-01T04:10:10;27.60;60.40
19050;DHT22;9657;45.940;12.840;2023-08-01T04:12:38;27.60;60.40
19050;DHT22;9657;45.940;12.840;2023-08-01T04:15:06;27.60;60.40
19050;DHT22;9657;45.940;12.840;2023-08-01T04:17:33;27.60;60.40
19050;DHT22;9657;45.940;12.840;2023-08-01T04:20:00;27.60;60.40
19050;DHT22;9657;45.940;12.840;2023-08-01T04:22:27;27.60;60.30
19050;DHT22;9657;45.940;12.840;2023-08-01T04:24:54;27.60;60.40
19050;DHT22;9657;45.940;12.840;2023-08-01T04:27:21;27.60;60.30
19050;DHT22;9657;45.940;12.840;2023-08-01T04:29:50;27.60;60.30
19050;DHT22;9657;45.940;12.840;2023-08-01T04:32:17;27.60;60.30
19050;DHT22;9657;45.940;12.840;2023-08-01T04:34:44;27.60;60.30
19050;DHT22;9657;45.940;12.840;2023-08-01T04:37:11;27.60;60.30
19050;DHT22;9657;45.940;12.840;2023-08-01T04:39:38;27.60;60.30
19050;DHT22;9657;45.940;12.840;2023-08-01T04:42:05;27.60;60.30
19050;DHT22;9657;45.940;12.840;2023-08-01T04:44:33;27.60;60.30
19050;DHT22;9657;45.940;12.840;2023-08-01T04:47:01;27.60;60.30
19050;DHT22;9657;45.940;12.840;2023-08-01T04:49:28;27.60;60.30
19050;DHT22;9657;45.940;12.840;2023-08-01T04:51:55;27.60;60.30
19050;DHT22;9657;45.940;12.840;2023-08-01T04:54:22;27.60;60.20
19050;DHT22;9657;45.940;12.840;2023-08-01T04:56:49;27.60;60.20
19050;DHT22;9657;45.940;12.840;2023-08-01T04:59:16;27.60;60.20
19050;DHT22;9657;45.940;12.840;2023-08-01T05:01:43;27.60;60.20
19050;DHT22;9657;45.940;12.840;2023-08-01T05:04:12;27.50;60.20
19050;DHT22;9657;45.940;12.840;2023-08-01T05:06:39;27.60;60.30
19050;DHT22;9657;45.940;12.840;2023-08-01T05:09:06;27.60;60.30
19050;DHT22;9657;45.940;12.840;2023-08-01T05:11:33;27.60;60.30
19050;DHT22;9657;45.940;12.840;2023-08-01T05:14:00;27.60;60.30
19050;DHT22;9657;45.940;12.840;2023-08-01T05:16:27;27.60;60.30
19050;DHT22;9657;45.940;12.840;2023-08-01T05:18:54;27.60;60.20
19050;DHT22;9657;45.940;12.840;2023-08-01T05:21:23;27.60;60.30
19050;DHT22;9657;45.940;12.840;2023-08-01T05:23:50;27.60;60.20
19050;DHT22;9657;45.940;12.840;2023-08-01T05:26:17;27.50;60.20
19050;DHT22;9657;45.940;12.840;2023-08-01T05:28:44;27.60;60.20
19050;DHT22;9657;45.940;12.840;2023-08-01T05:31:12;27.60;60.20
19050;DHT22;9657;45.940;12.840;2023-08-01T05:33:39;27.60;60.20
19050;DHT22;9657;45.940;12.840;2023-08-01T05:36:06;27.60;60.30
19050;DHT22;9657;45.940;12.840;2023-08-01T05:38:34;27.50;60.20
19050;DHT22;9657;45.940;12.840;2023-08-01T05:41:01;27.50;60.20
19050;DHT22;9657;45.940;12.840;2023-08-01T05:43:28;27.60;60.20
19050;DHT22;9657;45.940;12.840;2023-08-01T05:45:55;27.50;61.00
19050;DHT22;9657;45.940;12.840;2023-08-01T05:48:22;27.50;60.20
19050;DHT22;9657;45.940;12.840;2023-08-01T05:50:49;27.50;60.20
19050;DHT22;9657;45.940;12.840;2023-08-01T05:53:18;27.60;60.20
19050;DHT22;9657;45.940;12.840;2023-08-01T05:55:47;27.50;60.20
19050;DHT22;9657;45.940;12.840;2023-08-01T05:58:14;27.60;60.30
19050;DHT22;9657;45.940;12.840;2023-08-01T06:00:41;27.50;60.20
19050;DHT22;9657;45.940;12.840;2023-08-01T06:03:08;27.50;60.20
19050;DHT22;9657;45.940;12.840;2023-08-01T06:05:35;27.60;60.30
19050;DHT22;9657;45.940;12.840;2023-08-01T06:08:03;27.50;60.30
19050;DHT22;9657;45.940;12.840;2023-08-01T06:10:30;27.50;60.30
19050;DHT22;9657;45.940;12.840;2023-08-01T06:12:59;27.60;60.30
19050;DHT22;9657;45.940;12.840;2023-08-01T06:15:26;27.50;60.30
19050;DHT22;9657;45.940;12.840;2023-08-01T06:17:53;27.50;60.30
19050;DHT22;9657;45.940;12.840;2023-08-01T06:20:20;27.50;60.30
19050;DHT22;9657;45.940;12.840;2023-08-01T06:22:47;27.50;60.30
19050;DHT22;9657;45.940;12.840;2023-08-01T06:25:14;27.50;60.30
19050;DHT22;9657;45.940;12.840;2023-08-01T06:27:41;27.50;60.50
19050;DHT22;9657;45.940;12.840;2023-08-01T06:30:11;27.50;60.40
19050;DHT22;9657;45.940;12.840;2023-08-01T06:32:38;27.50;60.50
19050;DHT22;9657;45.940;12.840;2023-08-01T06:35:05;27.50;60.50
19050;DHT22;9657;45.940;12.840;2023-08-01T06:37:33;27.50;60.50
19050;DHT22;9657;45.940;12.840;2023-08-01T06:40:00;27.50;60.60
19050;DHT22;9657;45.940;12.840;2023-08-01T06:42:28;27.50;60.50
19050;DHT22;9657;45.940;12.840;2023-08-01T06:44:55;27.50;60.50
19050;DHT22;9657;45.940;12.840;2023-08-01T06:47:23;27.50;60.50
19050;DHT22;9657;45.940;12.840;2023-08-01T06:49:50;27.50;60.50
19050;DHT22;9657;45.940;12.840;2023-08-01T06:52:17;27.50;60.50
19050;DHT22;9657;45.940;12.840;2023-08-01T06:54:45;27.50;60.60
19050;DHT22;9657;45.940;12.840;2023-08-01T06:57:12;27.50;60.60
19050;DHT22;9657;45.940;12.840;2023-08-01T06:59:39;27.50;60.60
19050;DHT22;9657;45.940;12.840;2023-08-01T07:02:06;27.50;60.60
19050;DHT22;9657;45.940;12.840;2023-08-01T07:04:35;27.50;60.60
19050;DHT22;9657;45.940;12.840;2023-08-01T07:07:03;27.50;60.60
19050;DHT22;9657;45.940;12.840;2023-08-01T07:09:30;27.50;60.60
19050;DHT22;9657;45.940;12.840;2023-08-01T07:11:57;27.50;60.60
19050;DHT22;9657;45.940;12.840;2023-08-01T07:14:24;27.50;60.60
19050;DHT22;9657;45.940;12.840;2023-08-01T07:16:51;27.50;60.60
19050;DHT22;9657;45.940;12.840;2023-08-01T07:19:18;27.50;60.60
19050;DHT22;9657;45.940;12.840;2023-08-01T07:21:47;27.50;60.70
19050;DHT22;9657;45.940;12.840;2023-08-01T07:24:15;27.50;60.60
19050;DHT22;9657;45.940;12.840;2023-08-01T07:26:42;27.50;60.70
19050;DHT22;9657;45.940;12.840;2023-08-01T07:29:09;27.50;60.70
19050;DHT22;9657;45.940;12.840;2023-08-01T07:31:37;27.50;60.70
19050;DHT22;9657;45.940;12.840;2023-08-01T07:34:04;27.50;60.70
19050;DHT22;9657;45.940;12.840;2023-08-01T07:36:31;27.50;60.70
19050;DHT22;9657;45.940;12.840;2023-08-01T07:38:59;27.50;60.70
19050;DHT22;9657;45.940;12.840;2023-08-01T07:41:26;27.50;60.70
19050;DHT22;9657;45.940;12.840;2023-08-01T07:43:53;27.50;60.80
19050;DHT22;9657;45.940;12.840;2023-08-01T07:46:20;27.50;60.90
19050;DHT22;9657;45.940;12.840;2023-08-01T07:48:47;27.50;61.00
19050;DHT22;9657;45.940;12.840;2023-08-01T07:51:15;27.50;61.10
19050;DHT22;9657;45.940;12.840;2023-08-01T07:53:42;27.50;61.10
19050;DHT22;9657;45.940;12.840;2023-08-01T07:56:10;27.50;61.10
19050;DHT22;9657;45.940;12.840;2023-08-01T07:58:37;27.50;61.10
19050;DHT22;9657;45.940;12.840;2023-08-01T08:01:05;27.50;61.10
19050;DHT22;9657;45.940;12.840;2023-08-01T08:03:32;27.50;61.10
19050;DHT22;9657;45.940;12.840;2023-08-01T08:05:59;27.50;61.10
19050;DHT22;9657;45.940;12.840;2023-08-01T08:08:27;27.50;61.10
19050;DHT22;9657;45.940;12.840;2023-08-01T08:10:54;27.50;61.20
19050;DHT22;9657;45.940;12.840;2023-08-01T08:13:23;27.50;61.20
19050;DHT22;9657;45.940;12.840;2023-08-01T08:15:51;27.50;61.30
19050;DHT22;9657;45.940;12.840;2023-08-01T08:18:18;27.50;61.20
19050;DHT22;9657;45.940;12.840;2023-08-01T08:20:45;27.50;61.30
19050;DHT22;9657;45.940;12.840;2023-08-01T08:23:13;27.50;61.30
19050;DHT22;9657;45.940;12.840;2023-08-01T08:25:40;27.50;61.30
19050;DHT22;9657;45.940;12.840;2023-08-01T08:28:08;27.50;61.30
19050;DHT22;9657;45.940;12.840;2023-08-01T08:30:36;27.50;61.40
19050;DHT22;9657;45.940;12.840;2023-08-01T08:33:04;27.50;61.30
19050;DHT22;9657;45.940;12.840;2023-08-01T08:35:32;27.50;61.40
19050;DHT22;9657;45.940;12.840;2023-08-01T08:38:02;27.50;61.50
19050;DHT22;9657;45.940;12.840;2023-08-01T08:40:29;27.50;61.40
19050;DHT22;9657;45.940;12.840;2023-08-01T08:43:01;27.50;61.40
19050;DHT22;9657;45.940;12.840;2023-08-01T08:45:29;27.50;61.40
19050;DHT22;9657;45.940;12.840;2023-08-01T08:48:01;27.50;61.50
19050;DHT22;9657;45.940;12.840;2023-08-01T08:50:30;27.50;61.50
19050;DHT22;9657;45.940;12.840;2023-08-01T08:52:57;27.50;61.50
19050;DHT22;9657;45.940;12.840;2023-08-01T08:55:25;27.50;61.50
19050;DHT22;9657;45.940;12.840;2023-08-01T08:57:52;27.50;61.50
19050;DHT22;9657;45.940;12.840;2023-08-01T09:00:20;27.50;61.60
19050;DHT22;9657;45.940;12.840;2023-08-01T09:02:47;27.50;61.50
19050;DHT22;9657;45.940;12.840;2023-08-01T09:05:16;27.50;61.50
19050;DHT22;9657;45.940;12.840;2023-08-01T09:07:46;27.50;61.50
19050;DHT22;9657;45.940;12.840;2023-08-01T09:10:15;27.50;61.60
19050;DHT22;9657;45.940;12.840;2023-08-01T09:12:42;27.50;61.60
19050;DHT22;9657;45.940;12.840;2023-08-01T09:15:10;27.50;61.60
19050;DHT22;9657;45.940;12.840;2023-08-01T09:17:48;27.50;61.60
19050;DHT22;9657;45.940;12.840;2023-08-01T09:20:16;27.50;61.60
19050;DHT22;9657;45.940;12.840;2023-08-01T09:22:44;27.60;61.60
19050;DHT22;9657;45.940;12.840;2023-08-01T09:25:12;27.50;61.40
19050;DHT22;9657;45.940;12.840;2023-08-01T09:27:39;27.50;61.50
19050;DHT22;9657;45.940;12.840;2023-08-01T09:30:09;27.60;61.50
19050;DHT22;9657;45.940;12.840;2023-08-01T09:32:37;27.50;61.40
19050;DHT22;9657;45.940;12.840;2023-08-01T09:35:04;27.50;61.50
19050;DHT22;9657;45.940;12.840;2023-08-01T09:37:41;27.60;61.60
19050;DHT22;9657;45.940;12.840;2023-08-01T09:40:08;27.50;61.50
19050;DHT22;9657;45.940;12.840;2023-08-01T09:42:39;27.50;61.50
19050;DHT22;9657;45.940;12.840;2023-08-01T09:45:12;27.60;61.60
19050;DHT22;9657;45.940;12.840;2023-08-01T09:47:40;27.50;61.50
19050;DHT22;9657;45.940;12.840;2023-08-01T09:50:09;27.50;61.50
19050;DHT22;9657;45.940;12.840;2023-08-01T09:52:36;27.60;62.40
19050;DHT22;9657;45.940;12.840;2023-08-01T09:55:06;27.50;61.70
19050;DHT22;9657;45.940;12.840;2023-08-01T09:57:35;27.50;61.50
19050;DHT22;9657;45.940;12.840;2023-08-01T10:00:05;27.50;61.50
19050;DHT22;9657;45.940;12.840;2023-08-01T10:02:35;27.60;61.60
19050;DHT22;9657;45.940;12.840;2023-08-01T10:05:04;27.50;61.50
19050;DHT22;9657;45.940;12.840;2023-08-01T10:07:32;27.60;61.50
19050;DHT22;9657;45.940;12.840;2023-08-01T10:10:01;27.50;61.50
19050;DHT22;9657;45.940;12.840;2023-08-01T10:12:31;27.50;61.40
19050;DHT22;9657;45.940;12.840;2023-08-01T10:14:59;27.60;61.50
19050;DHT22;9657;45.940;12.840;2023-08-01T10:17:28;27.60;61.50
19050;DHT22;9657;45.940;12.840;2023-08-01T10:19:56;27.60;61.50
19050;DHT22;9657;45.940;12.840;2023-08-01T10:22:24;27.60;61.40
19050;DHT22;9657;45.940;12.840;2023-08-01T10:24:53;27.60;61.30
19050;DHT22;9657;45.940;12.840;2023-08-01T10:27:21;27.60;61.30
19050;DHT22;9657;45.940;12.840;2023-08-01T10:29:58;27.60;61.30
19050;DHT22;9657;45.940;12.840;2023-08-01T10:32:32;27.60;61.30
19050;DHT22;9657;45.940;12.840;2023-08-01T10:34:59;27.60;61.20
19050;DHT22;9657;45.940;12.840;2023-08-01T10:37:26;27.60;61.20
19050;DHT22;9657;45.940;12.840;2023-08-01T10:39:57;27.60;61.10
19050;DHT22;9657;45.940;12.840;2023-08-01T10:42:25;27.60;61.10
19050;DHT22;9657;45.940;12.840;2023-08-01T10:44:52;27.60;61.20
19050;DHT22;9657;45.940;12.840;2023-08-01T10:47:27;27.60;61.20
19050;DHT22;9657;45.940;12.840;2023-08-01T10:49:55;27.60;61.10
19050;DHT22;9657;45.940;12.840;2023-08-01T10:52:23;27.60;61.10
19050;DHT22;9657;45.940;12.840;2023-08-01T10:54:57;27.70;61.30
19050;DHT22;9657;45.940;12.840;2023-08-01T10:57:26;27.70;61.30
19050;DHT22;9657;45.940;12.840;2023-08-01T10:59:54;27.70;61.30
19050;DHT22;9657;45.940;12.840;2023-08-01T11:02:23;27.60;61.10
19050;DHT22;9657;45.940;12.840;2023-08-01T11:05:00;27.70;61.30
19050;DHT22;9657;45.940;12.840;2023-08-01T11:07:28;27.60;61.20
19050;DHT22;9657;45.940;12.840;2023-08-01T11:10:03;27.70;61.20
19050;DHT22;9657;45.940;12.840;2023-08-01T11:12:31;27.70;61.20
19050;DHT22;9657;45.940;12.840;2023-08-01T11:15:00;27.70;62.00
19050;DHT22;9657;45.940;12.840;2023-08-01T11:17:27;27.70;61.20
19050;DHT22;9657;45.940;12.840;2023-08-01T11:20:03;27.70;61.20
19050;DHT22;9657;45.940;12.840;2023-08-01T11:22:30;27.70;61.20
19050;DHT22;9657;45.940;12.840;2023-08-01T11:24:57;27.70;61.20
19050;DHT22;9657;45.940;12.840;2023-08-01T11:27:25;27.70;61.30
19050;DHT22;9657;45.940;12.840;2023-08-01T11:29:52;27.70;61.20
19050;DHT22;9657;45.940;12.840;2023-08-01T11:32:19;27.70;61.30
19050;DHT22;9657;45.940;12.840;2023-08-01T11:34:47;27.70;61.30
19050;DHT22;9657;45.940;12.840;2023-08-01T11:37:18;27.70;61.20
19050;DHT22;9657;45.940;12.840;2023-08-01T11:39:46;27.70;61.20
19050;DHT22;9657;45.940;12.840;2023-08-01T11:42:15;27.70;61.10
19050;DHT22;9657;45.940;12.840;2023-08-01T11:44:43;27.70;61.20
19050;DHT22;9657;45.940;12.840;2023-08-01T11:47:11;27.70;61.10
19050;DHT22;9657;45.940;12.840;2023-08-01T11:49:45;27.70;61.20
19050;DHT22;9657;45.940;12.840;2023-08-01T11:52:23;27.70;61.20
19050;DHT22;9657;45.940;12.840;2023-08-01T11:54:50;27.70;61.20
19050;DHT22;9657;45.940;12.840;2023-08-01T11:57:18;27.70;61.10
19050;DHT22;9657;45.940;12.840;2023-08-01T11:59:48;27.70;61.10
19050;DHT22;9657;45.940;12.840;2023-08-01T12:02:22;27.70;61.20
19050;DHT22;9657;45.940;12.840;2023-08-01T12:04:50;27.70;61.10
19050;DHT22;9657;45.940;12.840;2023-08-01T12:07:18;27.70;61.20
19050;DHT22;9657;45.940;12.840;2023-08-01T12:09:55;27.70;61.10
19050;DHT22;9657;45.940;12.840;2023-08-01T12:12:22;27.80;61.20
19050;DHT22;9657;45.940;12.840;2023-08-01T12:14:49;27.70;61.10
19050;DHT22;9657;45.940;12.840;2023-08-01T12:17:16;27.70;61.10
19050;DHT22;9657;45.940;12.840;2023-08-01T12:19:43;27.70;61.10
19050;DHT22;9657;45.940;12.840;2023-08-01T12:22:11;27.80;61.10
19050;DHT22;9657;45.940;12.840;2023-08-01T12:24:38;27.70;61.00
19050;DHT22;9657;45.940;12.840;2023-08-01T12:27:08;27.70;61.00
19050;DHT22;9657;45.940;12.840;2023-08-01T12:29:35;27.70;60.90
19050;DHT22;9657;45.940;12.840;2023-08-01T12:32:03;27.80;61.00
19050;DHT22;9657;45.940;12.840;2023-08-01T12:34:30;27.80;61.00
19050;DHT22;9657;45.940;12.840;2023-08-01T12:36:57;27.80;61.00
19050;DHT22;9657;45.940;12.840;2023-08-01T12:39:24;27.80;60.90
19050;DHT22;9657;45.940;12.840;2023-08-01T12:41:51;27.80;60.90
19050;DHT22;9657;45.940;12.840;2023-08-01T12:44:21;27.80;60.90
19050;DHT22;9657;45.940;12.840;2023-08-01T12:46:48;27.80;61.00
19050;DHT22;9657;45.940;12.840;2023-08-01T12:49:15;27.80;60.90
19050;DHT22;9657;45.940;12.840;2023-08-01T12:51:42;27.80;61.00
19050;DHT22;9657;45.940;12.840;2023-08-01T12:54:09;27.80;61.00
19050;DHT22;9657;45.940;12.840;2023-08-01T12:56:36;27.80;60.90
19050;DHT22;9657;45.940;12.840;2023-08-01T12:59:04;27.80;61.00
19050;DHT22;9657;45.940;12.840;2023-08-01T13:01:32;27.80;61.00
19050;DHT22;9657;45.940;12.840;2023-08-01T13:03:59;27.80;60.90
19050;DHT22;9657;45.940;12.840;2023-08-01T13:06:26;27.80;60.90
19050;DHT22;9657;45.940;12.840;2023-08-01T13:08:53;27.80;61.00
19050;DHT22;9657;45.940;12.840;2023-08-01T13:11:20;27.80;60.90
19050;DHT22;9657;45.940;12.840;2023-08-01T13:13:47;27.80;61.00
19050;DHT22;9657;45.940;12.840;2023-08-01T13:16:14;27.80;61.00
19050;DHT22;9657;45.940;12.840;2023-08-01T13:18:42;27.80;61.00
19050;DHT22;9657;45.940;12.840;2023-08-01T13:21:12;27.80;61.00
19050;DHT22;9657;45.940;12.840;2023-08-01T13:23:39;27.90;61.00
19050;DHT22;9657;45.940;12.840;2023-08-01T13:26:06;27.80;60.90
19050;DHT22;9657;45.940;12.840;2023-08-01T13:28:33;27.80;61.00
19050;DHT22;9657;45.940;12.840;2023-08-01T13:31:00;27.80;60.90
19050;DHT22;9657;45.940;12.840;2023-08-01T13:33:27;27.80;60.90
19050;DHT22;9657;45.940;12.840;2023-08-01T13:35:56;27.80;60.80
19050;DHT22;9657;45.940;12.840;2023-08-01T13:38:24;27.80;60.90
19050;DHT22;9657;45.940;12.840;2023-08-01T13:40:51;27.80;60.80
19050;DHT22;9657;45.940;12.840;2023-08-01T13:43:18;27.80;60.80
19050;DHT22;9657;45.940;12.840;2023-08-01T13:45:45;27.80;60.90
19050;DHT22;9657;45.940;12.840;2023-08-01T13:48:12;27.80;60.80
19050;DHT22;9657;45.940;12.840;2023-08-01T13:50:39;27.80;60.90
19050;DHT22;9657;45.940;12.840;2023-08-01T13:53:07;27.80;60.80
19050;DHT22;9657;45.940;12.840;2023-08-01T13:55:37;27.80;60.80
19050;DHT22;9657;45.940;12.840;2023-08-01T13:58:04;27.80;60.80
19050;DHT22;9657;45.940;12.840;2023-08-01T14:00:32;27.80;60.80
19050;DHT22;9657;45.940;12.840;2023-08-01T14:02:59;27.80;60.80
19050;DHT22;9657;45.940;12.840;2023-08-01T14:05:26;27.80;60.80
19050;DHT22;9657;45.940;12.840;2023-08-01T14:07:54;27.80;60.80
19050;DHT22;9657;45.940;12.840;2023-08-01T14:10:23;27.80;60.80
19050;DHT22;9657;45.940;12.840;2023-08-01T14:12:50;27.80;60.90
19050;DHT22;9657;45.940;12.840;2023-08-01T14:15:17;27.80;60.80
19050;DHT22;9657;45.940;12.840;2023-08-01T14:17:44;27.80;60.90
19050;DHT22;9657;45.940;12.840;2023-08-01T14:20:12;27.90;60.90
19050;DHT22;9657;45.940;12.840;2023-08-01T14:22:40;27.90;60.90
19050;DHT22;9657;45.940;12.840;2023-08-01T14:25:08;27.80;60.80
19050;DHT22;9657;45.940;12.840;2023-08-01T14:27:37;27.80;60.80
19050;DHT22;9657;45.940;12.840;2023-08-01T14:30:05;27.90;60.90
19050;DHT22;9657;45.940;12.840;2023-08-01T14:32:32;27.80;60.80
19050;DHT22;9657;45.940;12.840;2023-08-01T14:34:59;27.90;60.90
19050;DHT22;9657;45.940;12.840;2023-08-01T14:37:26;27.80;60.90
19050;DHT22;9657;45.940;12.840;2023-08-01T14:39:55;27.90;60.90
19050;DHT22;9657;45.940;12.840;2023-08-01T14:42:22;27.90;60.90
19050;DHT22;9657;45.940;12.840;2023-08-01T14:44:53;27.80;60.80
19050;DHT22;9657;45.940;12.840;2023-08-01T14:47:20;27.90;61.00
19050;DHT22;9657;45.940;12.840;2023-08-01T14:49:48;27.80;60.90
19050;DHT22;9657;45.940;12.840;2023-08-01T14:52:15;27.90;61.00
19050;DHT22;9657;45.940;12.840;2023-08-01T14:54:42;27.90;60.90
19050;DHT22;9657;45.940;12.840;2023-08-01T14:57:09;27.80;60.80
19050;DHT22;9657;45.940;12.840;2023-08-01T14:59:36;27.80;60.80
19050;DHT22;9657;45.940;12.840;2023-08-01T15:02:05;27.90;60.90
19050;DHT22;9657;45.940;12.840;2023-08-01T15:04:32;27.80;60.90
19050;DHT22;9657;45.940;12.840;2023-08-01T15:07:01;27.80;60.90
19050;DHT22;9657;45.940;12.840;2023-08-01T15:09:28;27.80;60.90
19050;DHT22;9657;45.940;12.840;2023-08-01T15:11:55;27.80;60.80
19050;DHT22;9657;45.940;12.840;2023-08-01T15:14:22;27.80;60.90
19050;DHT22;9657;45.940;12.840;2023-08-01T15:16:49;27.90;61.00
19050;DHT22;9657;45.940;12.840;2023-08-01T15:19:18;27.90;61.00
19050;DHT22;9657;45.940;12.840;2023-08-01T15:21:45;27.80;60.80
19050;DHT22;9657;45.940;12.840;2023-08-01T15:24:12;27.90;60.90
19050;DHT22;9657;45.940;12.840;2023-08-01T15:26:39;27.80;60.90
19050;DHT22;9657;45.940;12.840;2023-08-01T15:29:06;27.80;60.80
19050;DHT22;9657;45.940;12.840;2023-08-01T15:31:34;27.80;60.90
19050;DHT22;9657;45.940;12.840;2023-08-01T15:34:01;27.80;60.90
19050;DHT22;9657;45.940;12.840;2023-08-01T15:36:30;27.80;60.80